Time;durP1;ratioP1;P1;durP2;ratioP2;P2;SDS_P1;SDS_P2;PMS_P1;PMS_P2;Temp;Humidity;BMP_temperature;BMP_pressure;BME280_temperature;BME280_humidity;BME280_pressure;Samples;Min_cycle;Max_cycle;Signal;HPM_P1;HPM_P2
2021/09/20 03:07:33;;;;;;;;;;;;;;;11.72;93.45;99604.59;5062437;28;19935;-81
2021/09/20 03:09:58;;;;;;;;;;;;;;;11.66;93.32;99610.22;5053670;28;19920;-82
2021/09/20 03:12:24;;;;;;;;;;;;;;;11.67;93.41;99603.13;5071025;28;19917;-82
2021/09/20 03:14:49;;;;;;;;;;;;;;;11.68;93.31;99607.47;5054053;28;19921;-81
2021/09/20 03:17:14;;;;;;;;;;;;;;;11.67;93.38;99605.78;5054065;28;19916;-83
2021/09/20 03:19:39;;;;;;;;;;;;;;;11.63;93.02;99615.66;5070707;28;19926;-82
2021/09/20 03:22:05;;;;;;;;;;;;;;;11.60;93.12;99616.69;5070730;28;20367;-82
2021/09/20 03:24:30;;;;;;;;;;;;;;;11.60;93.06;99621.16;5069306;28;19962;-82
2021/09/20 03:26:55;;;;;;;;;;;;;;;11.62;93.46;99616.63;5072073;28;19917;-82
2021/09/20 03:29:21;;;;;;;;;;;;;;;11.62;93.17;99619.28;5070702;28;19917;-80
2021/09/20 03:31:47;;;;;;;;;;;;;;;11.68;95.46;99623.41;5071772;28;19916;-89
2021/09/20 03:34:13;;;;;;;;;;;;;;;11.75;97.51;99620.38;5053742;28;19927;-82
2021/09/20 03:36:38;;;;;;;;;;;;;;;11.74;98.83;99621.31;5052472;28;19916;-82
2021/09/20 03:39:04;;;;;;;;;;;;;;;11.74;99.34;99623.97;5071717;28;19917;-87
2021/09/20 03:41:30;;;;;;;;;;;;;;;11.75;99.57;99625.69;5070753;28;19920;-81
2021/09/20 03:43:55;;;;;;;;;;;;;;;11.71;99.53;99626.78;5053695;28;19920;-86
2021/09/20 03:46:21;;;;;;;;;;;;;;;11.73;99.56;99622.25;5053514;28;19917;-87
2021/09/20 03:48:46;;;;;;;;;;;;;;;11.69;99.53;99619.81;5053569;28;19916;-81
2021/09/20 03:51:11;;;;;;;;;;;;;;;11.68;99.50;99618.97;5070449;28;20399;-86
2021/09/20 03:53:36;;;;;;;;;;;;;;;11.68;99.38;99615.44;5070156;28;19926;-86
2021/09/20 03:56:02;;;;;;;;;;;;;;;11.65;99.22;99611.16;5066644;28;19927;-83
2021/09/20 03:58:28;;;;;;;;;;;;;;;11.63;99.00;99616.53;5071205;28;19921;-81
2021/09/20 04:00:53;;;;;;;;;;;;;;;11.62;98.98;99624.59;5070183;28;19920;-81
2021/09/20 04:03:18;;;;;;;;;;;;;;;11.62;98.77;99619.28;5048868;28;19916;-82
2021/09/20 04:05:44;;;;;;;;;;;;;;;11.62;98.72;99624.59;5068885;28;19921;-81
2021/09/20 04:08:10;;;;;;;;;;;;;;;11.62;98.52;99624.59;5053158;28;20282;-81
2021/09/20 04:10:36;;;;;;;;;;;;;;;11.60;98.31;99619.34;5071307;28;19917;-85
2021/09/20 04:13:01;;;;;;;;;;;;;;;11.62;98.23;99612.16;5053446;28;19924;-81
2021/09/20 04:15:26;;;;;;;;;;;;;;;11.63;98.32;99623.63;5073673;28;19973;-81
2021/09/20 04:17:51;;;;;;;;;;;;;;;11.62;98.16;99613.97;5074981;28;19968;-86
2021/09/20 04:20:17;;;;;;;;;;;;;;;11.66;98.25;99623.47;5073586;28;20195;-81
2021/09/20 04:22:42;;;;;;;;;;;;;;;11.66;97.84;99626.13;5074733;28;19923;-81
2021/09/20 04:25:08;;;;;;;;;;;;;;;11.64;98.13;99622.69;5074843;28;19931;-81
2021/09/20 04:27:33;;;;;;;;;;;;;;;11.65;98.16;99619.13;5074720;28;19970;-80
2021/09/20 04:29:59;;;;;;;;;;;;;;;11.70;97.85;99621.56;5074703;28;19921;-81
2021/09/20 04:32:24;;;;;;;;;;;;;;;11.69;97.61;99628.63;5074856;28;19999;-83
2021/09/20 04:34:49;;;;;;;;;;;;;;;11.70;97.28;99625.06;5055414;28;19943;-81
2021/09/20 04:37:16;;;;;;;;;;;;;;;11.68;97.31;99626.06;5054913;28;20295;-80
2021/09/20 04:39:41;;;;;;;;;;;;;;;11.74;97.37;99633.72;5073007;28;19982;-80
2021/09/20 07:54:08;;;;;;;;;;;;;;;11.50;91.75;99736.63;5195123;22;20378;-81
2021/09/20 07:56:34;;;;;;;;;;;;;;;11.49;91.95;99741.06;5094977;28;19924;-83
2021/09/20 07:59:00;;;;;;;;;;;;;;;11.48;91.71;99743.81;5076831;28;19924;-82
2021/09/20 08:01:25;;;;;;;;;;;;;;;11.48;91.56;99744.66;5077310;28;20023;-85
2021/09/20 08:03:51;;;;;;;;;;;;;;;11.55;92.13;99750.53;5065319;28;20420;-87
2021/09/20 08:06:17;;;;;;;;;;;;;;;11.55;92.38;99747.88;5077136;28;19927;-80
2021/09/20 08:08:42;;;;;;;;;;;;;;;11.58;92.51;99747.72;5070829;28;19985;-88
2021/09/20 08:11:07;;;;;;;;;;;;;;;11.57;92.65;99753.97;5085757;28;20027;-82
2021/09/20 08:13:33;;;;;;;;;;;;;;;11.57;92.56;99752.19;5069254;28;19916;-82
2021/09/20 08:15:59;;;;;;;;;;;;;;;11.55;92.24;99755.81;5075582;28;20003;-82
2021/09/20 08:18:24;;;;;;;;;;;;;;;11.54;92.24;99764.75;5093938;28;19924;-84
2021/09/20 08:20:49;;;;;;;;;;;;;;;11.56;91.93;99760.22;5077079;28;20056;-85
2021/09/20 08:23:15;;;;;;;;;;;;;;;11.53;91.67;99768.31;5068727;28;20050;-86
2021/09/20 08:25:40;;;;;;;;;;;;;;;11.53;91.94;99766.50;5074088;28;20011;-84
2021/09/20 08:28:06;;;;;;;;;;;;;;;11.57;91.95;99769.91;5076539;28;20019;-83
2021/09/20 08:30:31;;;;;;;;;;;;;;;11.57;92.06;99773.41;5085304;28;20432;-82
2021/09/20 08:32:57;;;;;;;;;;;;;;;11.62;92.57;99771.41;5094291;28;20018;-81
2021/09/20 08:35:22;;;;;;;;;;;;;;;11.62;92.70;99779.34;5094662;28;19916;-82
2021/09/20 08:37:48;;;;;;;;;;;;;;;11.67;93.04;99779.13;5068068;28;19989;-84
2021/09/20 08:40:14;;;;;;;;;;;;;;;11.66;92.78;99780.06;5094813;28;19973;-81
2021/09/20 08:42:40;;;;;;;;;;;;;;;11.66;92.51;99782.72;5094318;28;19927;-81
2021/09/20 08:45:07;;;;;;;;;;;;;;;11.60;92.53;99788.34;5069755;28;19920;-85
2021/09/20 08:47:33;;;;;;;;;;;;;;;11.64;92.41;99784.59;5066794;28;19923;-81
2021/09/20 08:49:58;;;;;;;;;;;;;;;11.58;92.16;99776.91;5076386;28;20516;-89
2021/09/20 08:52:23;;;;;;;;;;;;;;;11.53;91.90;99784.25;5092030;28;19981;-85
2021/09/20 08:54:51;;;;;;;;;;;;;;;11.53;91.82;99781.59;5094861;28;19920;-81
2021/09/20 08:57:17;;;;;;;;;;;;;;;11.54;91.80;99786.81;5095186;28;19954;-89
2021/09/20 08:59:42;;;;;;;;;;;;;;;11.54;91.72;99786.81;5093946;28;19972;-89
2021/09/20 09:02:10;;;;;;;;;;;;;;;11.56;91.84;99789.41;5075422;28;20002;-89
2021/09/20 09:04:36;;;;;;;;;;;;;;;11.52;91.65;99794.00;5084549;28;19946;-83
2021/09/20 09:07:06;;;;;;;;;;;;;;;11.49;91.86;99790.59;5087209;28;19941;-83
2021/09/20 09:09:32;;;;;;;;;;;;;;;11.52;91.49;99790.47;5066916;28;19927;-86
2021/09/20 09:12:08;;;;;;;;;;;;;;;11.49;91.84;99793.25;5093813;28;19920;-83
2021/09/20 09:14:43;;;;;;;;;;;;;;;11.51;91.66;99791.41;5075006;28;19928;-86
2021/09/20 09:17:09;;;;;;;;;;;;;;;11.50;91.57;99784.38;5076272;28;19920;-87
2021/09/20 09:19:40;;;;;;;;;;;;;;;11.47;91.48;99795.13;5092537;28;20359;-84
2021/09/20 09:22:05;;;;;;;;;;;;;;;11.49;91.58;99798.56;5065696;28;19935;-86
2021/09/20 09:24:31;;;;;;;;;;;;;;;11.48;91.56;99796.88;5070471;28;19916;-86
2021/09/20 09:26:57;;;;;;;;;;;;;;;11.45;91.74;99798.75;5093819;28;19938;-89
2021/09/20 09:29:23;;;;;;;;;;;;;;;11.44;91.65;99797.00;5067262;28;20053;-87
2021/09/20 09:31:57;;;;;;;;;;;;;;;11.43;91.58;99800.56;5067973;28;19928;-88
2021/09/20 09:34:26;;;;;;;;;;;;;;;11.47;91.48;99803.94;5069201;28;19920;-83
2021/09/20 09:37:05;;;;;;;;;;;;;;;11.47;91.64;99800.44;5093403;28;19962;-88
2021/09/20 09:39:30;;;;;;;;;;;;;;;11.44;91.55;99804.97;5093765;28;19920;-86
2021/09/20 09:41:56;;;;;;;;;;;;;;;11.44;91.67;99802.31;5075210;28;20421;-88
2021/09/20 09:44:26;;;;;;;;;;;;;;;12.89;100.00;99800.56;5074923;28;20382;-86
2021/09/20 09:46:51;;;;;;;;;;;;;;;15.98;76.16;99787.97;5064096;28;20370;-89
2021/09/20 09:49:18;;;;;;;;;;;;;;;12.88;91.74;99808.63;5067127;28;19931;-89
2021/09/20 09:51:55;;;;;;;;;;;;;;;12.32;93.77;99805.25;5067681;28;20367;-88
2021/09/20 09:54:28;;;;;;;;;;;;;;;12.06;93.52;99803.88;5065988;28;19931;-88
2021/09/20 09:57:10;;;;;;;;;;;;;;;11.96;93.18;99803.47;5069995;28;19927;-89
2021/09/20 09:59:35;;;;;;;;;;;;;;;11.86;92.92;99800.34;5068480;28;20385;-83
2021/09/20 10:02:14;;;;;;;;;;;;;;;11.84;92.48;99806.66;5069902;28;20003;-89
2021/09/20 10:04:47;;;;;;;;;;;;;;;11.76;92.13;99802.59;5082266;28;19947;-86
2021/09/20 10:07:20;;;;;;;;;;;;;;;11.74;92.06;99801.81;5092203;28;20451;-85
2021/09/20 10:09:45;;;;;;;;;;;;;;;11.71;91.96;99799.31;5075210;28;19931;-90
2021/09/20 10:12:11;;;;;;;;;;;;;;;11.69;91.87;99805.59;5092684;28;19921;-83
2021/09/20 10:14:37;;;;;;;;;;;;;;;11.67;91.84;99799.53;5068122;28;19973;-88
2021/09/20 10:17:02;;;;;;;;;;;;;;;11.66;91.71;99806.59;5093394;28;19924;-83
2021/09/20 10:19:28;;;;;;;;;;;;;;;11.70;91.77;99802.88;5092678;28;19931;-88
2021/09/20 10:21:53;;;;;;;;;;;;;;;11.71;91.77;99814.34;5067476;28;20358;-86
2021/09/20 10:24:19;;;;;;;;;;;;;;;11.74;91.79;99811.56;5066209;28;19916;-88
2021/09/20 10:26:44;;;;;;;;;;;;;;;11.73;91.75;99815.16;5069401;28;19926;-82
2021/09/20 10:29:13;;;;;;;;;;;;;;;11.74;91.74;99819.50;5092392;28;19988;-86
2021/09/20 10:31:40;;;;;;;;;;;;;;;11.74;91.80;99815.09;5093130;28;19959;-89
2021/09/20 10:34:17;;;;;;;;;;;;;;;11.76;91.60;99818.53;5093240;28;19924;-82
2021/09/20 10:36:47;;;;;;;;;;;;;;;11.77;91.86;99819.38;5092561;28;19924;-91
2021/09/20 10:39:12;;;;;;;;;;;;;;;11.77;92.06;99825.53;5065814;28;19916;-90
2021/09/20 10:41:37;;;;;;;;;;;;;;;11.81;91.83;99816.50;5067192;28;20446;-87
2021/09/20 10:44:12;;;;;;;;;;;;;;;11.80;91.77;99821.88;5086244;28;20403;-86
2021/09/20 10:46:39;;;;;;;;;;;;;;;11.78;91.72;99821.97;5065759;28;19920;-84
2021/09/20 10:49:05;;;;;;;;;;;;;;;11.77;91.46;99830.84;5072895;28;19924;-83
2021/09/20 10:51:35;;;;;;;;;;;;;;;11.75;91.64;99822.09;5084031;28;19920;-87
2021/09/20 10:54:10;;;;;;;;;;;;;;;11.75;91.51;99827.41;5062238;28;19920;-87
2021/09/20 10:56:36;;;;;;;;;;;;;;;11.72;91.39;99832.00;5081824;28;19931;-87
2021/09/20 10:59:01;;;;;;;;;;;;;;;11.69;91.14;99833.00;5080112;28;19920;-83
2021/09/20 11:01:30;;;;;;;;;;;;;;;11.68;91.47;99828.66;5062631;28;20042;-87
2021/09/20 11:04:03;;;;;;;;;;;;;;;11.73;91.46;99839.06;5076337;28;19924;-86
2021/09/20 11:06:28;;;;;;;;;;;;;;;11.73;91.73;99828.44;5064184;28;19988;-88
2021/09/20 11:09:02;;;;;;;;;;;;;;;11.76;91.17;99837.09;5082877;28;20355;-86
2021/09/20 11:11:37;;;;;;;;;;;;;;;11.76;91.69;99831.78;5065227;28;19924;-82
2021/09/20 11:14:23;;;;;;;;;;;;;;;11.77;91.71;99835.31;5084207;28;19920;-87
2021/09/20 11:16:59;;;;;;;;;;;;;;;11.80;92.07;99836.00;5061863;28;19924;-86
2021/09/20 11:19:27;;;;;;;;;;;;;;;11.80;91.89;99841.31;5060780;28;19973;-87
2021/09/20 11:24:33;;;;;;;;;;;;;;;11.75;91.29;99840.69;5079814;28;20336;-88
2021/09/20 11:26:59;;;;;;;;;;;;;;;11.77;91.14;99851.22;5081185;28;19958;-81
2021/09/20 11:29:26;;;;;;;;;;;;;;;11.76;91.18;99845.06;5081169;28;19942;-83
2021/09/20 11:31:54;;;;;;;;;;;;;;;11.76;91.17;99844.22;5066165;28;19946;-82
2021/09/20 11:34:26;;;;;;;;;;;;;;;11.73;91.37;99839.91;5062891;28;19920;-88
2021/09/20 11:36:51;;;;;;;;;;;;;;;11.77;91.20;99841.47;5080666;28;19931;-82
2021/09/20 11:39:17;;;;;;;;;;;;;;;11.78;91.29;99843.19;5062898;28;19920;-83
2021/09/20 11:41:46;;;;;;;;;;;;;;;11.75;91.19;99842.50;5083547;28;20325;-89
2021/09/20 11:44:12;;;;;;;;;;;;;;;11.75;91.31;99847.78;5063613;28;19925;-81
2021/09/20 11:46:37;;;;;;;;;;;;;;;11.71;91.38;99844.44;5063400;28;19946;-85
2021/09/20 11:49:04;;;;;;;;;;;;;;;11.73;91.34;99845.22;5073472;28;20378;-88
2021/09/20 11:51:29;;;;;;;;;;;;;;;11.73;91.25;99850.50;5064770;28;19931;-88
2021/09/20 11:53:55;;;;;;;;;;;;;;;11.76;91.47;99854.84;5064810;28;20014;-89
2021/09/20 11:56:24;;;;;;;;;;;;;;;11.74;91.29;99848.72;5081090;28;20274;-86
2021/09/20 11:58:53;;;;;;;;;;;;;;;11.75;91.26;99850.44;5063721;28;19928;-85
2021/09/20 12:01:23;;;;;;;;;;;;;;;11.76;91.43;99845.06;5063603;28;19928;-84
2021/09/20 12:03:56;;;;;;;;;;;;;;;11.75;92.01;99848.66;5080706;28;20342;-85
2021/09/20 12:06:31;;;;;;;;;;;;;;;11.77;91.61;99856.53;5065545;28;19998;-83
2021/09/20 12:08:58;;;;;;;;;;;;;;;11.82;91.70;99858.06;5077648;28;20364;-90
2021/09/20 12:11:24;;;;;;;;;;;;;;;11.78;91.76;99859.13;5082510;28;19921;-83
2021/09/20 12:13:51;;;;;;;;;;;;;;;11.80;91.53;99851.94;5061658;28;19924;-82
2021/09/20 12:16:16;;;;;;;;;;;;;;;11.75;91.34;99853.94;5064692;28;19965;-87
2021/09/20 12:18:41;;;;;;;;;;;;;;;11.74;91.40;99849.59;5067517;28;19916;-86
2021/09/20 12:21:09;;;;;;;;;;;;;;;11.71;91.49;99843.53;5064838;28;19920;-89
2021/09/20 12:23:35;;;;;;;;;;;;;;;11.73;91.34;99853.19;5058539;28;20011;-83
2021/09/20 12:26:02;;;;;;;;;;;;;;;11.74;91.52;99852.25;5056304;28;19959;-84
2021/09/20 12:28:32;;;;;;;;;;;;;;;11.73;91.34;99853.19;5079460;28;19974;-87
2021/09/20 12:31:04;;;;;;;;;;;;;;;11.71;91.45;99852.38;5079374;28;20371;-88
2021/09/20 12:33:48;;;;;;;;;;;;;;;11.72;91.71;99850.59;5072984;28;20346;-82
2021/09/20 12:36:27;;;;;;;;;;;;;;;11.73;91.64;99845.22;5083190;28;20378;-83
2021/09/20 12:39:15;;;;;;;;;;;;;;;11.70;92.03;99850.66;5082211;28;19950;-86
2021/09/20 12:41:45;;;;;;;;;;;;;;;11.69;91.71;99848.94;5072207;28;20398;-82
2021/09/20 12:44:12;;;;;;;;;;;;;;;11.69;91.72;99856.88;5081350;28;19920;-84
2021/09/20 12:46:38;;;;;;;;;;;;;;;11.69;91.94;99853.38;5082529;28;19920;-85
2021/09/20 12:49:05;;;;;;;;;;;;;;;11.66;91.99;99849.06;5080039;28;19928;-86
2021/09/20 12:51:31;;;;;;;;;;;;;;;11.68;91.91;99851.66;5063481;28;20329;-83
2021/09/20 12:53:57;;;;;;;;;;;;;;;11.64;92.11;99851.78;5061023;28;19932;-83
2021/09/20 12:56:27;;;;;;;;;;;;;;;11.67;92.00;99855.25;5064430;28;19924;-83
2021/09/20 12:59:09;;;;;;;;;;;;;;;11.65;92.05;99839.41;5064366;28;20264;-88
2021/09/20 13:01:34;;;;;;;;;;;;;;;11.66;91.76;99843.75;5081242;28;19930;-84
2021/09/20 13:04:00;;;;;;;;;;;;;;;11.63;91.91;99841.25;5063317;28;20011;-83
2021/09/20 13:06:26;;;;;;;;;;;;;;;11.64;92.01;99833.22;5061561;28;19916;-88
2021/09/20 13:08:59;;;;;;;;;;;;;;;11.65;91.94;99836.75;5069609;28;19924;-83
2021/09/20 13:11:24;;;;;;;;;;;;;;;11.64;91.98;99830.56;5062815;28;19921;-85
2021/09/20 13:13:49;;;;;;;;;;;;;;;11.64;91.80;99832.38;5061352;28;19924;-85
2021/09/20 13:16:15;;;;;;;;;;;;;;;11.68;92.12;99835.72;5060725;28;20371;-88
2021/09/20 13:18:41;;;;;;;;;;;;;;;11.64;92.14;99841.16;5058928;28;19921;-83
2021/09/20 13:21:20;;;;;;;;;;;;;;;11.67;92.12;99842.00;5065177;28;19917;-84
2021/09/20 13:23:47;;;;;;;;;;;;;;;11.70;92.22;99844.50;5058112;28;19991;-90
2021/09/20 13:26:13;;;;;;;;;;;;;;;11.68;92.04;99844.56;5078051;28;19921;-84
2021/09/20 13:28:40;;;;;;;;;;;;;;;11.68;92.16;99839.25;5059856;28;20764;-86
2021/09/20 13:31:09;;;;;;;;;;;;;;;11.66;92.05;99842.91;5070109;28;19921;-85
2021/09/20 13:33:35;;;;;;;;;;;;;;;11.66;92.13;99842.91;5062675;28;19916;-90
2021/09/20 13:36:03;;;;;;;;;;;;;;;11.66;92.07;99838.44;5061885;28;19924;-90
2021/09/20 13:38:30;;;;;;;;;;;;;;;11.71;91.98;99843.53;5062851;28;19931;-83
2021/09/20 13:40:59;;;;;;;;;;;;;;;11.67;92.02;99836.69;5062588;28;19944;-91
2021/09/20 13:43:25;;;;;;;;;;;;;;;11.65;92.32;99842.06;5062580;28;19921;-88
2021/09/20 13:45:50;;;;;;;;;;;;;;;11.61;92.65;99840.47;5069335;28;20011;-89
2021/09/20 13:48:16;;;;;;;;;;;;;;;11.62;92.60;99836.88;5061067;28;19971;-88
2021/09/20 13:50:42;;;;;;;;;;;;;;;11.61;92.81;99836.00;5060706;28;20590;-87
2021/09/20 13:53:08;;;;;;;;;;;;;;;11.63;92.81;99833.28;5063346;28;20384;-89
2021/09/20 13:55:36;;;;;;;;;;;;;;;11.61;92.32;99837.81;5067250;28;19955;-85
2021/09/20 13:58:02;;;;;;;;;;;;;;;11.62;92.32;99835.09;5065119;28;19920;-89
2021/09/20 14:00:28;;;;;;;;;;;;;;;11.64;92.06;99835.00;5063938;28;19921;-88
2021/09/20 14:02:53;;;;;;;;;;;;;;;11.66;91.59;99833.13;5081797;28;20444;-87
2021/09/20 14:05:20;;;;;;;;;;;;;;;11.61;91.64;99837.81;5080705;28;20147;-86
2021/09/20 14:07:46;;;;;;;;;;;;;;;11.62;91.56;99839.53;5083559;28;19916;-88
2021/09/20 14:10:12;;;;;;;;;;;;;;;11.62;91.22;99835.09;5085845;28;20019;-88
2021/09/20 14:12:38;;;;;;;;;;;;;;;11.63;91.47;99843.91;5081890;28;19916;-84
2021/09/20 14:15:03;;;;;;;;;;;;;;;11.66;91.21;99841.09;5075178;28;19924;-90
2021/09/20 14:17:29;;;;;;;;;;;;;;;11.65;91.35;99842.06;5066929;28;19925;-83
2021/09/20 14:19:54;;;;;;;;;;;;;;;11.67;91.16;99844.63;5066163;28;20359;-86
2021/09/20 14:22:20;;;;;;;;;;;;;;;11.70;91.24;99842.69;5079982;28;19931;-89
2021/09/20 14:24:45;;;;;;;;;;;;;;;11.71;91.75;99844.44;5074476;28;19924;-90
2021/09/20 14:27:11;;;;;;;;;;;;;;;11.73;91.81;99837.25;5067385;28;19974;-90
2021/09/20 14:29:36;;;;;;;;;;;;;;;11.72;91.97;99848.78;5066110;28;19974;-83
2021/09/20 14:32:01;;;;;;;;;;;;;;;11.81;91.95;99844.84;5063204;28;19952;-89
2021/09/20 14:34:27;;;;;;;;;;;;;;;11.78;91.72;99843.19;5081361;28;20319;-89
2021/09/20 14:36:52;;;;;;;;;;;;;;;11.85;91.55;99845.56;5064364;28;20015;-83
2021/09/20 14:39:17;;;;;;;;;;;;;;;11.77;91.49;99848.56;5081386;28;20379;-89
2021/09/20 14:41:43;;;;;;;;;;;;;;;11.75;91.43;99845.13;5065148;28;20282;-88
2021/09/20 14:44:08;;;;;;;;;;;;;;;11.80;91.41;99841.31;5064320;28;19920;-91
2021/09/20 14:46:33;;;;;;;;;;;;;;;11.86;91.38;99844.66;5058160;28;20466;-84
2021/09/20 14:48:59;;;;;;;;;;;;;;;11.85;91.20;99838.44;5058720;28;19924;-85
2021/09/20 14:51:24;;;;;;;;;;;;;;;11.78;91.30;99840.53;5080847;28;19924;-84
2021/09/20 14:53:49;;;;;;;;;;;;;;;11.82;90.88;99839.47;5064011;28;19955;-89
2021/09/20 14:56:15;;;;;;;;;;;;;;;11.78;90.97;99835.22;5082935;28;20299;-83
2021/09/20 14:58:40;;;;;;;;;;;;;;;11.80;90.67;99835.16;5062583;28;20275;-89
2021/09/20 15:01:06;;;;;;;;;;;;;;;11.77;90.48;99833.50;5065033;28;19931;-83
2021/09/20 15:03:31;;;;;;;;;;;;;;;11.80;90.35;99841.31;5060034;28;20283;-83
2021/09/20 15:05:57;;;;;;;;;;;;;;;11.76;90.33;99841.56;5062723;28;19974;-90
2021/09/20 15:08:23;;;;;;;;;;;;;;;11.80;90.07;99841.31;5061737;28;20409;-84
2021/09/20 15:10:48;;;;;;;;;;;;;;;11.79;90.08;99836.09;5078180;28;19970;-83
2021/09/20 15:13:13;;;;;;;;;;;;;;;11.79;89.87;99842.28;5075089;28;20015;-89
2021/09/20 15:15:39;;;;;;;;;;;;;;;11.81;89.70;99852.81;5061395;28;19973;-84
2021/09/20 15:18:04;;;;;;;;;;;;;;;11.80;89.75;99846.63;5059810;28;19946;-84
2021/09/20 15:20:29;;;;;;;;;;;;;;;11.80;89.48;99851.09;5063358;28;20382;-90
2021/09/20 15:22:55;;;;;;;;;;;;;;;11.81;89.60;99858.97;5062940;28;19924;-83
2021/09/20 15:25:20;;;;;;;;;;;;;;;11.79;89.51;99860.84;5060169;28;19916;-87
2021/09/20 15:27:46;;;;;;;;;;;;;;;11.82;89.83;99865.13;5063374;28;19920;-91
2021/09/20 15:30:13;;;;;;;;;;;;;;;11.87;90.38;99863.16;5064590;28;19955;-84
2021/09/20 15:32:38;;;;;;;;;;;;;;;11.90;90.61;99862.13;5078346;28;19952;-90
2021/09/20 15:35:04;;;;;;;;;;;;;;;11.96;90.75;99870.69;5063948;28;19963;-83
2021/09/20 15:37:31;;;;;;;;;;;;;;;12.03;91.36;99873.94;5080904;28;19921;-90
2021/09/20 15:39:56;;;;;;;;;;;;;;;12.19;92.52;99890.00;5082786;28;20290;-86
2021/09/20 15:42:22;;;;;;;;;;;;;;;12.21;99.12;99888.13;5064829;28;19917;-89
2021/09/20 15:44:47;;;;;;;;;;;;;;;12.39;100.00;99893.50;5065366;28;19970;-86
2021/09/20 15:47:12;;;;;;;;;;;;;;;12.46;100.00;99892.25;5063697;28;19916;-88
2021/09/20 15:49:38;;;;;;;;;;;;;;;12.56;100.00;99895.31;5065425;28;20342;-89
2021/09/20 15:52:07;;;;;;;;;;;;;;;12.62;100.00;99893.22;5062771;28;20431;-91
2021/09/20 15:54:33;;;;;;;;;;;;;;;12.71;100.00;99892.75;5065358;28;19920;-94
2021/09/20 15:56:58;;;;;;;;;;;;;;;12.75;100.00;99893.47;5063622;28;20372;-87
2021/09/20 15:59:24;;;;;;;;;;;;;;;12.80;100.00;99902.06;5064102;28;19923;-91
2021/09/20 16:01:49;;;;;;;;;;;;;;;12.89;100.00;99904.28;5066881;28;19916;-93
2021/09/20 16:04:14;;;;;;;;;;;;;;;12.95;100.00;99904.91;5062061;28;20019;-95
2021/09/20 16:06:40;;;;;;;;;;;;;;;13.03;100.00;99898.22;5066687;28;19920;-92
2021/09/20 16:09:05;;;;;;;;;;;;;;;13.07;100.00;99904.28;5063004;28;20415;-86
2021/09/20 16:11:30;;;;;;;;;;;;;;;13.11;100.00;99903.16;5066470;28;19923;-92
2021/09/20 16:13:55;;;;;;;;;;;;;;;13.13;100.00;99911.94;5065130;28;20006;-84
2021/09/20 16:16:21;;;;;;;;;;;;;;;13.25;100.00;99908.63;5063018;28;19916;-85
2021/09/20 16:18:46;;;;;;;;;;;;;;;11.53;100.00;99911.59;5067536;28;19956;-89
2021/09/20 16:21:11;;;;;;;;;;;;;;;10.46;96.32;99917.91;5084517;28;19918;-85
2021/09/20 16:23:37;;;;;;;;;;;;;;;10.05;93.25;99923.88;5082454;28;20428;-84
2021/09/20 16:26:02;;;;;;;;;;;;;;;9.79;91.13;99932.78;5068206;28;19943;-88
2021/09/20 16:28:27;;;;;;;;;;;;;;;9.54;90.06;99933.72;5066732;28;19926;-84
2021/09/20 16:30:53;;;;;;;;;;;;;;;9.34;89.00;99930.91;5067008;28;20406;-86
2021/09/20 16:33:19;;;;;;;;;;;;;;;9.21;89.04;99939.28;5084734;28;19924;-87
2021/09/20 16:35:44;;;;;;;;;;;;;;;9.19;88.53;99942.88;5066538;28;19916;-86
2021/09/20 16:38:10;;;;;;;;;;;;;;;9.09;88.27;99952.91;5066448;28;19931;-86
2021/09/20 16:40:35;;;;;;;;;;;;;;;8.96;88.78;99951.59;5066863;28;20359;-85
2021/09/20 16:43:00;;;;;;;;;;;;;;;8.88;88.68;99947.41;5084952;28;19919;-85
2021/09/20 16:45:26;;;;;;;;;;;;;;;8.87;88.80;99952.75;5067727;28;19912;-84
2021/09/20 16:47:51;;;;;;;;;;;;;;;8.84;88.24;99952.84;5066650;28;19923;-83
2021/09/20 16:50:17;;;;;;;;;;;;;;;8.74;88.55;99954.94;5060854;28;20298;-88
2021/09/20 16:52:43;;;;;;;;;;;;;;;8.65;89.07;99957.91;5066747;28;19916;-84
2021/09/20 16:55:08;;;;;;;;;;;;;;;8.66;88.80;99956.97;5063156;28;19929;-83
2021/09/20 16:57:34;;;;;;;;;;;;;;;8.60;88.89;99965.09;5063140;28;19917;-90
2021/09/20 16:59:59;;;;;;;;;;;;;;;8.51;89.25;99969.75;5064232;28;20271;-88
2021/09/20 17:02:25;;;;;;;;;;;;;;;8.52;88.92;99974.13;5064036;28;19924;-82
2021/09/20 17:04:50;;;;;;;;;;;;;;;8.49;89.11;99976.88;5063805;28;19967;-91
2021/09/20 17:07:16;;;;;;;;;;;;;;;8.51;88.88;99979.47;5062164;28;19943;-90
2021/09/20 17:09:41;;;;;;;;;;;;;;;8.48;89.08;99983.03;5061897;28;19921;-88
2021/09/20 17:12:06;;;;;;;;;;;;;;;8.39;89.36;99983.28;5063075;28;19917;-90
2021/09/20 17:14:34;;;;;;;;;;;;;;;8.32;89.61;99987.06;5063460;28;19990;-82
2021/09/20 17:17:00;;;;;;;;;;;;;;;8.35;89.16;99997.53;5063652;28;19977;-88
2021/09/20 17:19:25;;;;;;;;;;;;;;;8.35;89.25;99998.38;5065099;28;20430;-89
2021/09/20 17:21:54;;;;;;;;;;;;;;;8.35;89.34;100002.78;5061332;28;19940;-88
2021/09/20 17:24:19;;;;;;;;;;;;;;;8.31;89.02;100006.44;5062759;28;19990;-84
2021/09/20 17:26:45;;;;;;;;;;;;;;;8.28;89.45;100009.16;5058923;28;20470;-88
2021/09/20 17:29:10;;;;;;;;;;;;;;;8.25;89.42;100010.13;5063161;28;19917;-91
2021/09/20 17:31:35;;;;;;;;;;;;;;;8.25;89.09;100011.88;5063851;28;20018;-89
2021/09/20 17:34:00;;;;;;;;;;;;;;;8.26;88.94;100017.13;5063242;28;19923;-82
2021/09/20 17:36:26;;;;;;;;;;;;;;;8.19;89.08;100026.16;5062560;28;19927;-82
2021/09/20 17:38:51;;;;;;;;;;;;;;;8.16;89.07;100028.88;5060078;28;19917;-92
2021/09/20 17:41:17;;;;;;;;;;;;;;;8.17;89.08;100028.84;5061292;28;20028;-83
2021/09/20 17:43:42;;;;;;;;;;;;;;;8.20;88.93;100033.16;5064302;28;20385;-83
2021/09/20 17:46:08;;;;;;;;;;;;;;;8.14;89.03;100036.84;5063596;28;20059;-83
2021/09/20 17:48:34;;;;;;;;;;;;;;;8.11;89.00;100036.94;5062926;28;20367;-85
2021/09/20 17:51:00;;;;;;;;;;;;;;;8.11;89.14;100044.84;5059422;28;19925;-87
2021/09/20 17:53:25;;;;;;;;;;;;;;;8.04;89.07;100040.66;5065914;28;19924;-82
2021/09/20 17:55:51;;;;;;;;;;;;;;;8.04;88.79;100045.94;5083418;28;19923;-83
2021/09/20 17:58:16;;;;;;;;;;;;;;;8.05;88.82;100050.28;5064324;28;19917;-88
2021/09/20 18:00:41;;;;;;;;;;;;;;;8.04;89.17;100056.50;5083578;28;19917;-85
2021/09/20 18:03:10;;;;;;;;;;;;;;;7.96;89.40;100055.81;5080423;28;19989;-82
2021/09/20 18:05:36;;;;;;;;;;;;;;;7.92;89.16;100057.69;5064432;28;19920;-85
2021/09/20 18:08:01;;;;;;;;;;;;;;;7.87;89.23;100062.22;5064348;28;19916;-93
2021/09/20 18:10:26;;;;;;;;;;;;;;;7.82;89.42;100070.28;5062803;28;19920;-82
2021/09/20 18:12:52;;;;;;;;;;;;;;;7.79;90.04;100073.00;5065027;28;19916;-90
2021/09/20 18:15:18;;;;;;;;;;;;;;;7.77;89.86;100068.66;5078788;28;19927;-82
2021/09/20 18:17:43;;;;;;;;;;;;;;;7.77;89.59;100073.91;5081720;28;19917;-86
2021/09/20 18:20:09;;;;;;;;;;;;;;;7.71;90.06;100074.13;5065264;28;19958;-86
2021/09/20 18:22:35;;;;;;;;;;;;;;;7.75;89.81;100083.66;5063736;28;20272;-82
2021/09/20 18:25:01;;;;;;;;;;;;;;;7.73;89.42;100090.75;5065769;28;19927;-89
2021/09/20 18:27:26;;;;;;;;;;;;;;;7.68;89.57;100096.16;5082586;28;20297;-83
2021/09/20 18:29:51;;;;;;;;;;;;;;;7.72;89.56;100092.53;5064497;28;19916;-89
2021/09/20 18:32:16;;;;;;;;;;;;;;;7.73;89.66;100094.25;5065532;28;19920;-89
2021/09/20 18:34:42;;;;;;;;;;;;;;;7.61;89.63;100098.09;5082781;28;20015;-83
2021/09/20 18:37:07;;;;;;;;;;;;;;;7.61;89.65;100110.38;5081543;28;19920;-87
2021/09/20 18:39:32;;;;;;;;;;;;;;;7.69;89.33;100108.44;5064556;28;20010;-83
2021/09/20 18:41:58;;;;;;;;;;;;;;;7.63;89.55;100108.59;5065496;28;20264;-84
2021/09/20 18:44:23;;;;;;;;;;;;;;;7.54;89.93;100111.47;5065534;28;19912;-83
2021/09/20 18:46:48;;;;;;;;;;;;;;;7.53;90.00;100115.00;5064317;28;19924;-84
2021/09/20 18:49:14;;;;;;;;;;;;;;;7.54;89.90;100120.22;5065244;28;19916;-90
2021/09/20 18:51:39;;;;;;;;;;;;;;;7.47;90.10;100118.66;5064521;28;19916;-83
2021/09/20 18:54:05;;;;;;;;;;;;;;;7.50;89.83;100121.22;5063826;28;19966;-83
2021/09/20 18:56:31;;;;;;;;;;;;;;;7.45;89.70;100120.44;5064255;28;19920;-81
2021/09/20 18:58:56;;;;;;;;;;;;;;;7.44;89.89;100127.50;5082814;28;19969;-91
2021/09/20 19:01:21;;;;;;;;;;;;;;;7.44;90.09;100134.56;5063673;28;20371;-91
2021/09/20 19:03:47;;;;;;;;;;;;;;;7.45;89.77;100136.28;5064162;28;19912;-90
2021/09/20 19:06:12;;;;;;;;;;;;;;;7.38;89.77;100143.47;5064439;28;19967;-90